createdAt,value
2018-05-26T00:22:59.022Z,82.8
2018-05-26T00:29:54.435Z,82.3
2018-05-26T00:45:01.783Z,83.9
2018-05-26T00:58:19.230Z,84.5
2018-05-26T01:29:28.891Z,88.0
2018-05-26T01:33:51.963Z,88.8
2018-05-26T01:43:35.390Z,89.8
2018-05-26T01:44:36.497Z,89.9
2018-05-26T01:52:29.102Z,91.1
2018-05-26T02:25:14.349Z,88.4
2018-05-26T02:28:49.491Z,90.1
2018-05-26T02:46:57.110Z,93.5
2018-05-26T02:57:54.299Z,96.9
2018-05-26T03:35:17.014Z,100.0
2018-05-26T03:42:22.546Z,100.0
2018-05-26T04:07:10.678Z,100.0
2018-05-26T04:19:13.515Z,100.0
2018-05-26T04:25:42.575Z,100.0
2018-05-26T04:33:24.290Z,100.0
2018-05-26T04:34:25.106Z,100.0
2018-05-26T04:46:53.280Z,100.0
2018-05-26T04:59:53.222Z,100.0
2018-05-26T05:10:27.421Z,100.0
2018-05-26T05:17:14.577Z,100.0
2018-05-26T05:22:50.910Z,98.0
2018-05-26T05:29:57.118Z,91.1
2018-05-26T05:52:24.992Z,83.1
2018-05-26T06:02:59.223Z,83.9
2018-05-26T06:24:12.649Z,77.4
2018-05-26T06:39:39.396Z,74.5
2018-05-26T07:01:14.063Z,72.0
2018-05-26T07:02:15.136Z,69.7
2018-05-26T07:26:08.721Z,65.0
2018-05-26T07:28:04.275Z,63.6
2018-05-26T07:29:51.767Z,64.7
2018-05-26T07:45:19.460Z,47.9
2018-05-26T07:46:20.286Z,48.1
2018-05-26T07:47:21.511Z,48.0
2018-05-26T07:49:05.019Z,47.1
2018-05-26T07:50:06.087Z,47.1
2018-05-26T07:57:56.378Z,47.4
2018-05-26T08:08:18.173Z,49.0
2018-05-26T08:40:02.230Z,46.7
2018-05-26T09:04:00.624Z,42.5
2018-05-26T09:41:46.457Z,41.1
2018-05-26T09:45:24.387Z,41.1
2018-05-26T10:15:24.824Z,39.3
2018-05-26T10:25:54.842Z,39.6
2018-05-26T11:14:08.401Z,38.1
2018-05-26T11:27:28.732Z,36.9
2018-05-26T12:20:43.358Z,26.3
2018-05-26T12:40:35.820Z,29.5
2018-05-26T13:01:07.657Z,27.5
2018-05-26T13:13:09.123Z,33.9
2018-05-26T13:19:38.739Z,30.2
2018-05-26T14:19:51.298Z,26.8
2018-05-26T18:14:58.351Z,61.7
2018-05-26T18:15:59.107Z,61.7
2018-05-26T18:17:00.143Z,61.8
2018-05-26T18:18:01.057Z,62.0
2018-05-26T18:19:01.804Z,61.9
2018-05-26T18:20:02.883Z,61.8
2018-05-26T18:21:03.867Z,62.5
2018-05-26T18:22:04.591Z,62.4
2018-05-26T18:23:05.320Z,62.5
2018-05-26T18:24:06.058Z,62.1
2018-05-26T18:25:06.793Z,62.9
2018-05-26T18:26:07.524Z,62.7
2018-05-26T18:27:08.256Z,62.6
2018-05-26T18:28:08.991Z,64.5
2018-05-26T18:29:09.745Z,63.9
2018-05-26T18:30:10.477Z,64.3
2018-05-26T18:31:11.213Z,63.8
2018-05-26T18:32:11.942Z,64.4
2018-05-26T18:33:12.677Z,64.6
2018-05-26T18:34:13.424Z,64.7
2018-05-26T18:35:14.151Z,64.5
2018-05-26T18:36:14.940Z,64.4
2018-05-26T18:37:15.936Z,64.5
2018-05-26T18:38:16.684Z,64.6
2018-05-26T18:39:17.400Z,64.7
2018-05-26T18:40:18.131Z,65.2
2018-05-26T18:41:18.864Z,65.3
2018-05-26T18:42:19.836Z,65.6
2018-05-26T18:43:20.575Z,65.2
2018-05-26T18:44:21.312Z,65.6
2018-05-26T18:45:22.057Z,65.3
2018-05-26T18:46:22.831Z,65.9
2018-05-26T18:47:23.566Z,66.0
2018-05-26T18:48:24.291Z,67.0
2018-05-26T18:49:25.023Z,67.0
2018-05-26T18:50:25.764Z,67.6
2018-05-26T18:51:26.590Z,67.2
2018-05-26T18:52:27.326Z,67.1
2018-05-26T18:53:28.063Z,67.6
2018-05-26T18:54:28.792Z,67.6
2018-05-26T18:55:29.535Z,67.5
2018-05-26T18:56:30.308Z,67.1
2018-05-26T18:57:31.047Z,67.6
2018-05-26T18:58:31.777Z,67.9
2018-05-26T18:59:32.569Z,68.1
2018-05-26T19:00:33.300Z,68.5
2018-05-26T19:01:34.040Z,68.5
2018-05-26T19:02:34.759Z,68.7
2018-05-26T19:03:35.497Z,69.6
2018-05-26T19:04:36.217Z,69.4
2018-05-26T19:05:37.045Z,69.1
2018-05-26T19:06:37.860Z,69.3
2018-05-26T19:07:38.512Z,69.2
2018-05-26T19:08:39.234Z,69.7
2018-05-26T19:09:39.988Z,69.4
2018-05-26T19:10:41.107Z,69.5
2018-05-26T19:11:41.828Z,69.9
2018-05-26T19:12:42.580Z,70.4
2018-05-26T19:13:43.355Z,71.0
2018-05-26T19:14:44.052Z,71.1
2018-05-26T19:15:45.130Z,71.4
2018-05-26T19:16:45.874Z,72.1
2018-05-26T19:17:46.601Z,71.3
2018-05-26T19:18:47.329Z,71.9
2018-05-26T19:19:48.059Z,71.9
2018-05-26T19:20:48.939Z,72.4
2018-05-26T19:21:50.570Z,72.7
2018-05-26T19:22:51.351Z,72.6
2018-05-26T19:23:52.079Z,73.0
2018-05-26T19:24:52.810Z,73.6
2018-05-26T19:25:54.158Z,74.2
2018-05-26T19:26:54.912Z,74.0
2018-05-26T19:27:55.670Z,74.2
2018-05-26T19:28:56.389Z,74.7
2018-05-26T19:29:57.130Z,74.5
2018-05-26T19:30:57.859Z,74.9
2018-05-26T19:31:58.584Z,74.8
2018-05-26T19:32:59.756Z,74.8
2018-05-26T19:34:00.510Z,75.0
2018-05-26T19:35:01.236Z,75.0
2018-05-26T19:36:02.018Z,75.0
2018-05-26T19:37:02.835Z,74.9
2018-05-26T19:38:03.868Z,75.1
2018-05-26T19:39:04.889Z,75.1
2018-05-26T19:40:05.937Z,75.8
2018-05-26T19:41:06.916Z,76.0
2018-05-26T19:42:07.952Z,75.9
2018-05-26T19:43:08.718Z,76.2
2018-05-26T19:44:09.509Z,76.2
2018-05-26T19:45:10.228Z,76.4
2018-05-26T19:46:11.006Z,76.6
2018-05-26T19:47:11.981Z,76.6
2018-05-26T19:48:12.730Z,76.8
2018-05-26T19:49:13.450Z,77.1
2018-05-26T19:50:14.182Z,76.9
2018-05-26T19:51:14.906Z,76.7
2018-05-26T19:52:15.690Z,77.0
2018-05-26T19:53:16.565Z,76.8
2018-05-26T19:54:17.322Z,77.1
2018-05-26T19:55:18.104Z,77.5
2018-05-26T19:56:18.849Z,77.2
2018-05-26T19:57:19.587Z,76.9
2018-05-26T19:58:20.493Z,77.6
2018-05-26T19:59:21.188Z,77.8
2018-05-26T20:00:21.922Z,78.1
2018-05-26T20:01:23.015Z,78.4
2018-05-26T20:02:24.022Z,78.4
2018-05-26T20:03:25.099Z,78.3
2018-05-26T20:04:25.825Z,78.5
2018-05-26T20:05:26.569Z,78.1
2018-05-26T20:06:27.537Z,78.5
2018-05-26T20:07:28.282Z,78.4
2018-05-26T20:08:29.035Z,78.4
2018-05-26T20:09:29.767Z,79.1
2018-05-26T20:10:30.898Z,78.9
2018-05-26T20:11:31.624Z,79.2
2018-05-26T20:12:32.354Z,79.2
2018-05-26T20:13:33.683Z,79.7
2018-05-26T20:14:34.424Z,79.2
2018-05-26T20:15:35.420Z,79.6
2018-05-26T20:16:36.157Z,79.1
2018-05-26T20:17:36.874Z,79.9
2018-05-26T20:18:37.612Z,80.1
2018-05-26T20:19:38.328Z,79.8
2018-05-26T20:20:39.111Z,80.3
2018-05-26T20:21:39.830Z,80.5
2018-05-26T20:22:40.826Z,80.6
2018-05-26T20:23:41.574Z,80.8
2018-05-26T20:24:42.304Z,80.9
2018-05-26T20:25:43.035Z,80.3
2018-05-26T20:26:44.026Z,80.7
2018-05-26T20:27:44.752Z,81.1
2018-05-26T20:28:45.870Z,81.3
2018-05-26T20:29:46.857Z,81.1
2018-05-26T20:30:47.587Z,81.7
2018-05-26T20:31:48.339Z,81.3
2018-05-26T20:32:49.524Z,81.8
2018-05-26T20:33:50.357Z,81.8
2018-05-26T20:34:51.565Z,81.5
2018-05-26T20:35:52.397Z,81.8
2018-05-26T20:36:54.304Z,82.0
2018-05-26T20:37:55.195Z,82.6
2018-05-26T20:38:55.921Z,82.1
2018-05-26T20:39:57.122Z,82.6
2018-05-26T20:40:57.888Z,82.9
2018-05-26T20:41:58.611Z,82.7
2018-05-26T20:42:59.338Z,82.1
2018-05-26T20:44:00.087Z,82.0
2018-05-26T20:45:00.817Z,82.0
2018-05-26T20:46:01.559Z,82.4
2018-05-26T20:47:02.279Z,82.7
2018-05-26T20:48:03.016Z,82.7
2018-05-26T20:49:04.016Z,83.0
2018-05-26T20:50:04.762Z,82.5
2018-05-26T20:51:05.728Z,82.4
2018-05-26T20:52:06.443Z,82.0
2018-05-26T20:53:07.173Z,81.4
2018-05-26T20:54:07.900Z,81.5
2018-05-26T20:55:08.654Z,81.4
2018-05-26T20:56:09.372Z,82.0
2018-05-26T20:57:10.095Z,81.6
2018-05-26T20:58:10.870Z,81.6
2018-05-26T20:59:11.596Z,81.7
2018-05-26T21:00:12.321Z,81.3
2018-05-26T21:01:13.037Z,80.5
2018-05-26T21:02:13.769Z,80.2
2018-05-26T21:03:14.495Z,81.0
2018-05-26T21:04:15.242Z,81.0
2018-05-26T21:05:15.958Z,80.9
2018-05-26T21:06:16.949Z,81.3
2018-05-26T21:07:17.665Z,81.5
2018-05-26T21:08:18.390Z,81.1
2018-05-26T21:09:19.144Z,81.1
2018-05-26T21:10:19.853Z,81.4
2018-05-26T21:11:20.592Z,81.6
2018-05-26T21:12:21.413Z,81.5
2018-05-26T21:13:22.140Z,81.5
2018-05-26T21:14:22.867Z,81.9
2018-05-26T21:15:23.597Z,81.4
2018-05-26T21:16:24.332Z,81.8
2018-05-26T21:17:25.069Z,81.9
2018-05-26T21:18:25.933Z,81.8
2018-05-26T21:19:26.690Z,82.0
2018-05-26T21:20:27.416Z,82.5
2018-05-26T21:21:28.393Z,83.3
2018-05-26T21:22:29.143Z,82.8
2018-05-26T21:23:29.862Z,82.7
2018-05-26T21:24:30.605Z,83.3
2018-05-26T21:25:31.334Z,82.9
2018-05-26T21:26:32.073Z,83.3
2018-05-26T21:27:32.808Z,81.9
2018-05-26T21:28:33.780Z,82.7
2018-05-26T21:29:34.503Z,82.9
2018-05-26T21:30:35.221Z,82.8
2018-05-26T21:31:35.937Z,83.1
2018-05-26T21:32:36.717Z,83.6
2018-05-26T21:33:37.432Z,84.0
2018-05-26T21:34:38.158Z,82.9
2018-05-26T21:35:38.883Z,83.0
2018-05-26T21:36:39.605Z,83.3
2018-05-26T21:37:40.369Z,83.5
2018-05-26T21:38:41.114Z,84.7
2018-05-26T21:39:41.841Z,84.4
2018-05-26T21:40:42.572Z,83.7
2018-05-26T21:41:43.297Z,83.8
2018-05-26T21:42:44.283Z,84.6
2018-05-26T21:43:45.068Z,84.2
2018-05-26T21:44:46.066Z,84.3
2018-05-26T21:45:46.784Z,83.9
2018-05-26T21:46:47.525Z,83.8
2018-05-26T21:47:48.257Z,84.1
2018-05-26T21:48:49.030Z,84.6
2018-05-26T21:49:49.751Z,84.7
2018-05-26T21:50:50.481Z,83.9
2018-05-26T21:51:51.209Z,84.0
2018-05-26T21:52:51.947Z,83.9
2018-05-26T21:53:52.683Z,84.8
2018-05-26T21:54:53.450Z,84.3
2018-05-26T21:55:54.239Z,85.1
2018-05-26T21:56:54.953Z,85.0
2018-05-26T21:57:55.691Z,85.3
2018-05-26T21:58:56.426Z,85.4
2018-05-26T21:59:57.162Z,85.0
2018-05-26T22:00:58.279Z,85.5
2018-05-26T22:01:59.085Z,85.0
2018-05-26T22:02:59.783Z,85.1
2018-05-26T22:04:00.509Z,84.8
2018-05-26T22:05:01.251Z,85.1
2018-05-26T22:06:02.016Z,85.7
2018-05-26T22:07:02.804Z,85.0
2018-05-26T22:08:03.800Z,85.5
2018-05-26T22:09:04.527Z,86.0
2018-05-26T22:10:05.254Z,85.6
2018-05-26T22:11:05.974Z,85.5
2018-05-26T22:12:06.967Z,85.9
2018-05-26T22:13:07.700Z,85.7
2018-05-26T22:14:08.418Z,85.6
2018-05-26T22:15:09.157Z,86.5
2018-05-26T22:16:09.870Z,86.3
2018-05-26T22:17:10.614Z,86.1
2018-05-26T22:18:11.338Z,86.1
2018-05-26T22:19:12.413Z,85.8
2018-05-26T22:20:13.140Z,86.4
2018-05-26T22:21:14.118Z,86.4
2018-05-26T22:22:14.883Z,85.8
2018-05-26T22:23:15.953Z,86.0
2018-05-26T22:24:16.787Z,86.1
2018-05-26T22:25:17.513Z,86.4
2018-05-26T22:26:18.259Z,86.2
2018-05-26T22:27:18.982Z,86.3
2018-05-26T22:28:19.710Z,87.1
2018-05-26T22:29:20.534Z,86.8
2018-05-26T22:30:21.261Z,87.1
2018-05-26T22:31:21.997Z,86.8
2018-05-26T22:32:22.722Z,87.3
2018-05-26T22:33:23.698Z,87.3
2018-05-26T22:34:24.472Z,87.9
2018-05-26T22:35:25.197Z,87.5
2018-05-26T22:36:25.924Z,87.6
2018-05-26T22:37:26.664Z,87.9
2018-05-26T22:38:27.428Z,87.7
2018-05-26T22:39:28.231Z,87.9
2018-05-26T22:40:28.952Z,87.6
2018-05-26T22:41:29.681Z,87.6
2018-05-26T22:42:30.413Z,87.6
2018-05-26T22:43:31.143Z,88.3
2018-05-26T22:44:31.859Z,87.5
2018-05-26T22:45:32.581Z,88.0
2018-05-26T22:46:33.303Z,87.5
2018-05-26T22:47:34.040Z,87.9
2018-05-26T22:48:34.761Z,87.7
2018-05-26T22:49:35.746Z,87.7
2018-05-26T22:50:36.463Z,87.9
2018-05-26T22:51:37.239Z,88.6
2018-05-26T22:52:37.962Z,88.4
2018-05-26T22:53:38.670Z,88.1
2018-05-26T22:54:39.396Z,88.6
2018-05-26T22:55:40.117Z,88.4
2018-05-26T22:56:40.849Z,89.3
2018-05-26T22:57:41.565Z,90.0
2018-05-26T22:58:42.289Z,90.8
2018-05-26T22:59:43.122Z,90.1
2018-05-26T23:00:43.841Z,90.1
2018-05-26T23:01:44.826Z,90.1
2018-05-26T23:02:45.549Z,90.2
2018-05-26T23:03:46.524Z,89.8
2018-05-26T23:04:47.243Z,90.2
2018-05-26T23:05:47.978Z,89.9
2018-05-26T23:06:48.804Z,90.0
2018-05-26T23:07:49.527Z,89.9
2018-05-26T23:08:50.263Z,90.0
2018-05-26T23:09:50.979Z,90.9
2018-05-26T23:10:51.716Z,90.6
2018-05-26T23:11:52.840Z,90.2
2018-05-26T23:12:53.806Z,90.3
2018-05-26T23:13:54.535Z,90.7
2018-05-26T23:14:55.256Z,90.7
2018-05-26T23:15:55.984Z,90.3
2018-05-26T23:16:56.992Z,91.0
2018-05-26T23:17:58.059Z,90.1
2018-05-26T23:18:58.808Z,90.2
2018-05-26T23:19:59.805Z,90.0
2018-05-26T23:21:00.533Z,90.0
2018-05-26T23:22:01.258Z,90.1
2018-05-26T23:23:02.285Z,90.0
2018-05-26T23:24:03.012Z,90.3
2018-05-26T23:25:03.727Z,90.3
2018-05-26T23:26:04.447Z,90.9
2018-05-26T23:27:05.172Z,90.6
2018-05-26T23:28:05.906Z,90.9
2018-05-26T23:29:07.798Z,91.5
2018-05-26T23:30:08.601Z,91.2
2018-05-26T23:31:09.342Z,91.5
2018-05-26T23:32:10.068Z,91.4
2018-05-26T23:33:11.161Z,91.6
2018-05-26T23:34:11.881Z,92.0
2018-05-26T23:35:12.606Z,91.8
2018-05-26T23:36:13.325Z,92.1
2018-05-26T23:37:14.048Z,91.4
2018-05-26T23:38:15.229Z,91.7
2018-05-26T23:39:15.968Z,92.0
2018-05-26T23:40:16.690Z,92.1
2018-05-26T23:41:17.637Z,92.0
2018-05-26T23:42:18.556Z,92.1
2018-05-26T23:43:19.281Z,92.9
2018-05-26T23:44:20.002Z,92.2
2018-05-26T23:45:20.987Z,92.9
2018-05-26T23:46:21.709Z,92.2
2018-05-26T23:47:22.428Z,92.7
2018-05-26T23:48:23.168Z,92.5
2018-05-26T23:49:23.892Z,92.8
2018-05-26T23:50:24.927Z,92.8
2018-05-26T23:51:25.662Z,92.7
2018-05-26T23:52:26.386Z,93.1
2018-05-26T23:53:27.112Z,92.6
2018-05-26T23:54:27.848Z,92.8
2018-05-26T23:55:29.383Z,92.8
2018-05-26T23:56:30.433Z,92.7
2018-05-26T23:57:31.218Z,92.7
2018-05-26T23:58:31.942Z,92.4
2018-05-26T23:59:32.914Z,93.4
